Time;durP1;ratioP1;P1;durP2;ratioP2;P2;SDS_P1;SDS_P2;PMS_P1;PMS_P2;Temp;Humidity;BMP_temperature;BMP_pressure;BME280_temperature;BME280_humidity;BME280_pressure;Samples;Min_cycle;Max_cycle;Signal;HPM_P1;HPM_P2
2021/04/12 00:02:52;;;;;;;2.67;1.93;;;10.90;91.90;;;;;;6249904;28;20482;-60
2021/04/12 00:05:59;;;;;;;2.27;1.90;;;10.80;92.30;;;;;;6249860;28;20467;-60
2021/04/12 00:09:07;;;;;;;2.23;2.03;;;10.70;92.60;;;;;;6250099;28;20467;-60
2021/04/12 00:12:14;;;;;;;2.03;1.93;;;10.60;92.50;;;;;;6249371;28;20471;-61
2021/04/12 00:15:22;;;;;;;2.90;2.17;;;10.60;92.60;;;;;;6249528;28;20978;-60
2021/04/12 00:18:29;;;;;;;1.60;1.43;;;10.60;92.90;;;;;;6249915;28;20499;-61
2021/04/12 00:21:39;;;;;;;2.20;1.80;;;10.60;93.00;;;;;;6249918;28;20467;-60
2021/04/12 00:24:49;;;;;;;2.27;1.60;;;10.50;93.00;;;;;;6249661;28;20482;-60
2021/04/12 00:27:55;;;;;;;2.60;2.40;;;10.50;93.20;;;;;;6252857;28;20482;-60
2021/04/12 00:31:04;;;;;;;1.73;1.60;;;10.50;93.20;;;;;;6254224;28;20799;-60
2021/04/12 00:34:15;;;;;;;2.23;2.03;;;10.50;93.20;;;;;;6253667;28;20483;-62
2021/04/12 00:37:21;;;;;;;3.50;2.73;;;10.40;93.20;;;;;;6254713;28;20467;-59
2021/04/12 00:40:34;;;;;;;3.97;3.10;;;10.30;93.30;;;;;;6254613;28;20967;-59
2021/04/12 00:43:50;;;;;;;3.10;2.80;;;10.40;93.40;;;;;;6253725;28;20948;-60
2021/04/12 00:47:01;;;;;;;3.70;3.30;;;10.30;93.50;;;;;;6254193;28;20448;-60
2021/04/12 00:50:31;;;;;;;4.67;4.17;;;10.30;93.60;;;;;;6249897;28;20431;-60
2021/04/12 00:53:47;;;;;;;3.63;2.90;;;10.30;93.60;;;;;;6254060;28;20490;-60
2021/04/12 00:56:56;;;;;;;4.00;3.57;;;10.30;93.70;;;;;;6253852;28;20482;-60
2021/04/12 01:00:06;;;;;;;4.80;4.00;;;10.30;93.80;;;;;;6253017;28;20974;-59
2021/04/12 01:03:45;;;;;;;2.90;2.70;;;10.30;94.00;;;;;;6253522;28;20471;-61
2021/04/12 01:07:18;;;;;;;2.70;2.23;;;10.30;93.80;;;;;;6253398;28;20540;-61
2021/04/12 01:10:42;;;;;;;1.80;1.70;;;10.20;93.70;;;;;;6253328;28;20463;-62
2021/04/12 01:14:04;;;;;;;1.83;1.70;;;10.20;93.80;;;;;;6253020;28;20475;-60
2021/04/12 01:17:21;;;;;;;2.80;1.70;;;10.20;93.80;;;;;;6252796;28;20459;-59
2021/04/12 01:20:54;;;;;;;1.70;1.60;;;10.10;94.00;;;;;;6252889;28;20846;-61
2021/04/12 01:24:32;;;;;;;1.93;1.80;;;10.10;94.10;;;;;;6253048;28;20554;-58
2021/04/12 01:28:18;;;;;;;2.13;1.93;;;10.10;94.10;;;;;;6246264;28;20488;-59
2021/04/12 01:31:53;;;;;;;1.87;1.70;;;10.00;94.30;;;;;;6252840;28;20474;-59
2021/04/12 01:35:25;;;;;;;2.03;1.83;;;10.00;94.50;;;;;;6252416;28;20479;-59
2021/04/12 01:38:30;;;;;;;2.27;1.80;;;10.00;94.40;;;;;;6252073;28;20478;-59
2021/04/12 01:41:40;;;;;;;3.50;2.53;;;10.00;94.20;;;;;;6252913;28;20467;-59
2021/04/12 01:44:52;;;;;;;2.57;1.80;;;9.90;94.90;;;;;;6252188;28;20475;-60
2021/04/12 01:48:07;;;;;;;2.73;1.90;;;9.80;95.10;;;;;;6252427;28;20486;-59
2021/04/12 01:51:44;;;;;;;1.90;1.77;;;9.90;95.30;;;;;;6252910;28;20467;-60
2021/04/12 01:55:00;;;;;;;2.10;1.77;;;9.80;95.40;;;;;;6247807;28;20486;-59
2021/04/12 01:58:25;;;;;;;3.23;2.23;;;9.80;95.70;;;;;;6252295;28;20484;-59
2021/04/12 02:01:47;;;;;;;2.70;2.23;;;9.70;95.60;;;;;;6249041;28;20476;-60
2021/04/12 02:05:21;;;;;;;1.90;1.80;;;9.60;95.50;;;;;;6252171;28;20490;-60
2021/04/12 02:08:30;;;;;;;1.77;1.67;;;9.60;95.60;;;;;;6252487;28;20467;-60
2021/04/12 02:11:53;;;;;;;2.40;2.10;;;9.60;95.70;;;;;;6252172;28;20490;-60
2021/04/12 02:15:08;;;;;;;1.90;1.80;;;9.60;95.80;;;;;;6251651;28;20471;-60
2021/04/12 02:18:40;;;;;;;2.30;2.10;;;9.60;95.80;;;;;;6251944;28;20483;-60
2021/04/12 02:22:04;;;;;;;2.43;1.73;;;9.60;96.00;;;;;;6251574;28;20463;-60
2021/04/12 02:25:16;;;;;;;2.00;1.80;;;9.60;95.90;;;;;;6251509;28;20986;-60
2021/04/12 02:28:40;;;;;;;1.80;1.60;;;9.50;96.00;;;;;;6251435;28;20475;-59
2021/04/12 02:31:47;;;;;;;2.00;1.90;;;9.60;96.10;;;;;;6251663;28;20468;-59
2021/04/12 02:35:09;;;;;;;2.47;2.27;;;9.50;96.20;;;;;;6251211;28;20625;-59
2021/04/12 02:38:26;;;;;;;2.73;2.03;;;9.40;96.30;;;;;;6252253;28;20463;-59
2021/04/12 02:41:41;;;;;;;2.07;1.97;;;9.40;96.20;;;;;;6251824;28;20467;-59
2021/04/12 02:44:55;;;;;;;3.03;1.90;;;9.40;96.30;;;;;;6251219;28;20489;-59
2021/04/12 02:48:10;;;;;;;1.93;1.83;;;9.30;96.50;;;;;;6251211;28;20565;-59
2021/04/12 02:51:23;;;;;;;3.33;2.07;;;9.20;96.60;;;;;;6250261;28;20837;-59
2021/04/12 02:54:50;;;;;;;1.73;1.60;;;9.30;96.70;;;;;;6251426;28;20479;-62
2021/04/12 02:58:32;;;;;;;6.77;2.07;;;9.20;96.80;;;;;;6251153;28;20489;-62
2021/04/12 03:01:53;;;;;;;1.73;1.50;;;9.20;96.80;;;;;;6250958;28;20486;-59
2021/04/12 03:05:09;;;;;;;1.80;1.70;;;9.10;96.70;;;;;;6250813;28;20487;-60
2021/04/12 03:08:35;;;;;;;1.37;1.27;;;9.10;96.70;;;;;;6250939;28;20478;-59
2021/04/12 03:12:02;;;;;;;2.00;1.70;;;9.10;97.00;;;;;;6241114;28;20476;-61
2021/04/12 03:15:32;;;;;;;1.57;1.47;;;9.20;97.00;;;;;;6250651;28;20467;-60
2021/04/12 03:19:11;;;;;;;2.60;1.70;;;9.10;97.00;;;;;;6250602;28;20463;-61
2021/04/12 03:22:40;;;;;;;1.97;1.87;;;9.10;96.90;;;;;;6250367;28;21002;-60
2021/04/12 03:26:03;;;;;;;2.57;2.37;;;9.20;96.90;;;;;;6242144;28;20471;-59
2021/04/12 03:29:16;;;;;;;1.87;1.73;;;9.10;96.90;;;;;;6250260;28;20793;-59
2021/04/12 03:32:37;;;;;;;1.90;1.70;;;9.10;97.10;;;;;;6250229;28;20486;-61
2021/04/12 03:35:53;;;;;;;1.77;1.57;;;9.10;97.20;;;;;;6250417;28;20609;-61
2021/04/12 03:39:04;;;;;;;2.50;2.10;;;9.10;97.30;;;;;;6250349;28;20476;-61
2021/04/12 03:42:19;;;;;;;2.83;2.00;;;9.00;97.30;;;;;;6249937;28;20468;-61
2021/04/12 03:45:33;;;;;;;4.47;2.50;;;9.00;97.40;;;;;;6249997;28;20488;-61
2021/04/12 03:48:51;;;;;;;2.77;1.90;;;8.90;97.60;;;;;;6250384;28;20483;-61
2021/04/12 03:52:37;;;;;;;3.70;2.40;;;8.90;97.70;;;;;;6250329;28;20491;-62
2021/04/12 03:56:01;;;;;;;2.00;1.80;;;8.90;97.80;;;;;;6249965;28;20482;-61
2021/04/12 03:59:17;;;;;;;2.33;1.77;;;8.90;97.90;;;;;;6250173;28;20456;-62
2021/04/12 04:02:33;;;;;;;2.70;2.50;;;8.90;98.30;;;;;;6243301;28;20463;-61
2021/04/12 04:05:49;;;;;;;3.10;2.20;;;8.90;97.90;;;;;;6254823;28;20982;-60
2021/04/12 04:09:05;;;;;;;2.10;2.00;;;9.00;97.90;;;;;;6254865;28;20471;-60
2021/04/12 04:12:41;;;;;;;2.10;1.93;;;9.00;97.80;;;;;;6255077;28;20463;-60
2021/04/12 04:15:57;;;;;;;2.40;1.77;;;9.10;97.70;;;;;;6254713;28;20482;-63
2021/04/12 04:19:05;;;;;;;1.90;1.80;;;9.10;97.60;;;;;;6254334;28;20475;-62
2021/04/12 04:22:29;;;;;;;2.57;2.20;;;9.00;97.60;;;;;;6254563;28;20478;-61
2021/04/12 04:26:09;;;;;;;3.23;2.57;;;8.90;97.80;;;;;;6254101;28;20495;-61
2021/04/12 04:29:33;;;;;;;2.03;1.70;;;8.80;98.10;;;;;;6251007;28;20467;-60
2021/04/12 04:32:51;;;;;;;2.13;2.03;;;8.80;98.50;;;;;;6253760;28;20478;-61
2021/04/12 04:36:07;;;;;;;2.13;1.93;;;8.70;98.40;;;;;;6254054;28;20479;-61
2021/04/12 04:39:59;;;;;;;3.50;2.23;;;8.90;98.50;;;;;;6253786;28;20962;-61
2021/04/12 04:43:25;;;;;;;1.87;1.77;;;8.90;98.50;;;;;;6253280;28;20467;-61
2021/04/12 04:46:59;;;;;;;2.80;2.20;;;9.00;98.50;;;;;;6253342;28;20486;-61
2021/04/12 04:50:37;;;;;;;2.60;2.40;;;8.90;98.60;;;;;;6253881;28;20530;-62
2021/04/12 04:54:11;;;;;;;3.53;2.83;;;9.00;98.60;;;;;;6253441;28;20975;-60
2021/04/12 04:57:24;;;;;;;3.27;2.30;;;9.00;98.80;;;;;;6253574;28;20471;-61
2021/04/12 05:00:51;;;;;;;3.00;2.43;;;9.00;98.30;;;;;;6253570;28;20490;-62
2021/04/12 05:04:41;;;;;;;4.83;1.83;;;9.00;98.30;;;;;;6253530;28;20976;-62
2021/04/12 05:08:21;;;;;;;2.47;2.27;;;9.10;98.10;;;;;;6168219;28;20474;-62
2021/04/12 05:11:45;;;;;;;2.90;2.07;;;9.20;97.70;;;;;;6253384;28;20462;-62
2021/04/12 05:15:04;;;;;;;5.27;1.57;;;9.30;97.50;;;;;;6252085;28;20482;-61
2021/04/12 05:18:39;;;;;;;3.07;1.93;;;9.40;97.40;;;;;;6253194;28;20514;-61
2021/04/12 05:22:19;;;;;;;2.83;2.00;;;9.50;97.30;;;;;;6251519;28;20473;-62
2021/04/12 05:25:31;;;;;;;5.67;2.10;;;9.60;97.00;;;;;;6249612;28;20786;-62
2021/04/12 05:29:00;;;;;;;3.93;2.87;;;9.60;97.00;;;;;;6253098;28;20482;-62
2021/04/12 05:32:20;;;;;;;3.30;3.00;;;9.70;97.00;;;;;;6252637;28;20443;-61
2021/04/12 05:35:34;;;;;;;8.37;3.13;;;9.70;97.00;;;;;;6251440;28;20468;-63
2021/04/12 05:39:22;;;;;;;3.10;2.80;;;9.70;97.00;;;;;;6250807;28;20469;-62
2021/04/12 05:42:34;;;;;;;4.73;3.07;;;9.80;97.10;;;;;;6242268;28;20467;-62
2021/04/12 05:46:10;;;;;;;3.70;2.50;;;10.00;96.70;;;;;;6250605;28;20795;-61
2021/04/12 05:49:40;;;;;;;4.73;1.77;;;10.20;96.00;;;;;;6249456;28;20472;-62
2021/04/12 05:53:19;;;;;;;2.40;1.93;;;10.40;95.40;;;;;;6249453;28;20471;-62
2021/04/12 05:56:31;;;;;;;5.70;2.83;;;10.70;94.60;;;;;;6249590;28;20475;-63
2021/04/12 05:59:51;;;;;;;2.97;1.93;;;11.00;93.70;;;;;;6249970;28;20493;-62
2021/04/12 06:03:18;;;;;;;5.23;2.70;;;11.40;92.90;;;;;;6250600;28;20479;-62
2021/04/12 06:06:39;;;;;;;2.03;1.77;;;12.10;91.90;;;;;;6250691;28;20464;-62
2021/04/12 06:10:16;;;;;;;3.70;2.27;;;13.50;87.90;;;;;;6246580;28;20474;-62
2021/04/12 06:13:50;;;;;;;2.83;1.73;;;15.30;81.10;;;;;;6251300;28;20475;-63
2021/04/12 06:17:23;;;;;;;5.90;3.27;;;16.30;72.70;;;;;;6251303;28;20986;-64
2021/04/12 06:20:53;;;;;;;8.17;2.30;;;17.20;67.00;;;;;;6226281;28;20500;-62
2021/04/12 06:24:21;;;;;;;1.97;1.80;;;18.30;61.20;;;;;;6225701;28;20823;-63
2021/04/12 06:28:19;;;;;;;3.20;2.30;;;18.80;58.40;;;;;;6225905;28;20478;-63
2021/04/12 06:31:51;;;;;;;10.43;2.63;;;19.80;55.40;;;;;;6224603;28;20483;-62
2021/04/12 06:35:05;;;;;;;4.40;2.07;;;20.50;51.70;;;;;;6225007;28;20546;-61
2021/04/12 06:38:40;;;;;;;5.80;2.10;;;21.10;50.50;;;;;;6225644;28;20216;-63
2021/04/12 06:42:17;;;;;;;2.20;1.67;;;21.40;48.50;;;;;;6225649;28;20256;-64
2021/04/12 06:46:11;;;;;;;3.17;2.00;;;21.80;47.20;;;;;;6225728;28;20263;-64
2021/04/12 06:50:01;;;;;;;3.70;2.80;;;22.20;46.10;;;;;;6224953;28;20248;-63
2021/04/12 06:53:50;;;;;;;3.80;1.63;;;23.40;44.60;;;;;;6225521;28;20233;-63
2021/04/12 06:57:31;;;;;;;2.40;1.67;;;24.00;42.30;;;;;;6225698;28;20248;-62
2021/04/12 07:01:10;;;;;;;2.70;2.13;;;23.80;41.70;;;;;;6225016;28;20233;-63
2021/04/12 07:04:42;;;;;;;4.43;2.00;;;24.00;40.70;;;;;;6225254;28;20237;-62
2021/04/12 07:08:27;;;;;;;2.70;1.40;;;23.90;40.80;;;;;;6225181;28;20241;-63
2021/04/12 07:12:06;;;;;;;5.00;1.77;;;24.80;39.70;;;;;;6224744;28;20233;-62
2021/04/12 07:15:27;;;;;;;2.10;1.60;;;26.10;37.70;;;;;;6220241;28;20231;-66
2021/04/12 07:19:27;;;;;;;3.70;1.40;;;27.10;36.70;;;;;;6225188;28;20236;-63
2021/04/12 07:22:53;;;;;;;2.00;1.60;;;27.60;35.10;;;;;;6226528;28;20238;-63
2021/04/12 07:26:27;;;;;;;4.13;1.50;;;26.90;35.80;;;;;;6249267;28;20216;-62
2021/04/12 07:29:59;;;;;;;3.80;1.43;;;26.50;36.40;;;;;;6249308;28;20284;-62
2021/04/12 07:33:38;;;;;;;2.60;1.70;;;26.90;36.60;;;;;;6244323;28;20239;-62
2021/04/12 07:37:11;;;;;;;1.20;1.10;;;29.00;34.20;;;;;;6248244;28;20679;-63
2021/04/12 07:40:48;;;;;;;4.97;4.30;;;30.60;31.40;;;;;;6248830;28;20231;-63
2021/04/12 07:44:53;;;;;;;2.17;1.53;;;31.50;29.70;;;;;;6245221;28;20227;-63
2021/04/12 07:48:29;;;;;;;3.53;1.30;;;32.10;29.00;;;;;;6244133;28;20231;-61
2021/04/12 07:52:10;;;;;;;2.10;1.27;;;33.10;28.10;;;;;;6252162;28;20224;-61
2021/04/12 07:55:44;;;;;;;7.03;1.67;;;34.30;27.20;;;;;;6255075;28;20679;-60
2021/04/12 07:59:12;;;;;;;1.42;1.33;;;35.80;26.00;;;;;;6245112;28;20246;-61
2021/04/12 08:02:56;;;;;;;2.63;1.58;;;35.70;25.20;;;;;;6247345;28;20646;-60
2021/04/12 08:06:34;;;;;;;1.90;1.27;;;35.90;25.10;;;;;;6248873;28;20224;-60
2021/04/12 08:10:12;;;;;;;4.40;1.65;;;35.40;25.30;;;;;;6241150;28;20228;-61
2021/04/12 08:13:47;;;;;;;5.10;1.58;;;35.80;25.00;;;;;;6241137;28;20243;-62
2021/04/12 08:17:43;;;;;;;4.50;1.50;;;36.30;24.60;;;;;;6249416;28;20227;-61
2021/04/12 08:21:26;;;;;;;3.33;3.03;;;37.70;23.80;;;;;;6231070;28;20231;-61
2021/04/12 08:24:46;;;;;;;1.83;1.60;;;38.90;23.30;;;;;;6247439;28;20551;-61
2021/04/12 08:28:36;;;;;;;2.83;1.85;;;40.10;22.10;;;;;;6245333;28;20231;-62
2021/04/12 08:32:14;;;;;;;2.72;1.85;;;40.20;21.30;;;;;;6238148;28;20224;-60
2021/04/12 08:35:56;;;;;;;5.93;1.98;;;38.70;21.80;;;;;;6247017;28;20321;-61
2021/04/12 08:39:40;;;;;;;5.38;1.92;;;36.60;23.70;;;;;;6249274;28;20234;-61
2021/04/12 08:43:08;;;;;;;5.70;2.00;;;36.10;24.30;;;;;;6249107;28;20595;-61
2021/04/12 08:46:37;;;;;;;2.95;1.85;;;35.40;24.70;;;;;;6247289;28;20227;-61
2021/04/12 08:50:13;;;;;;;5.10;2.42;;;34.70;25.10;;;;;;6228559;28;20247;-61
2021/04/12 08:53:40;;;;;;;3.13;1.65;;;32.30;27.00;;;;;;6210798;28;20240;-60
2021/04/12 08:57:14;;;;;;;3.23;1.47;;;31.30;28.40;;;;;;6226630;28;20252;-61
2021/04/12 09:00:43;;;;;;;5.93;1.87;;;30.40;29.40;;;;;;6228682;28;20232;-60
2021/04/12 09:04:14;;;;;;;3.70;1.23;;;27.80;32.10;;;;;;6228700;28;20233;-61
2021/04/12 09:07:35;;;;;;;4.40;1.50;;;26.30;35.30;;;;;;6228446;28;20310;-61
2021/04/12 09:11:24;;;;;;;4.00;1.60;;;25.20;37.30;;;;;;6228716;28;20225;-61
2021/04/12 09:14:53;;;;;;;2.93;1.47;;;24.50;38.60;;;;;;6250790;28;20676;-59
2021/04/12 09:18:46;;;;;;;2.13;1.23;;;23.70;40.20;;;;;;6252572;28;20224;-62
2021/04/12 09:22:28;;;;;;;5.70;1.93;;;22.90;41.80;;;;;;6247493;28;20247;-59
2021/04/12 09:26:03;;;;;;;2.00;1.80;;;22.10;44.00;;;;;;6252721;28;20239;-58
2021/04/12 09:30:11;;;;;;;7.10;1.77;;;21.30;45.70;;;;;;6252888;28;20216;-59
2021/04/12 09:33:46;;;;;;;3.57;1.50;;;21.40;46.00;;;;;;6252457;28;20383;-59
2021/04/12 09:37:15;;;;;;;4.73;2.17;;;21.20;46.00;;;;;;6252654;28;20228;-58
2021/04/12 09:40:39;;;;;;;3.20;2.10;;;21.30;46.10;;;;;;6252326;28;20575;-59
2021/04/12 09:44:15;;;;;;;2.53;1.23;;;21.40;46.10;;;;;;6229001;28;20565;-58
2021/04/12 09:47:52;;;;;;;2.43;1.20;;;21.80;46.10;;;;;;6228858;28;20565;-59
2021/04/12 09:51:29;;;;;;;2.40;1.00;;;21.90;45.70;;;;;;6227660;28;20684;-59
2021/04/12 09:55:09;;;;;;;4.17;1.23;;;22.20;45.70;;;;;;6244434;28;20320;-59
2021/04/12 09:58:43;;;;;;;3.00;1.80;;;23.00;44.70;;;;;;6276907;28;20544;-60
2021/04/12 10:02:20;;;;;;;1.37;1.17;;;23.60;43.70;;;;;;6276581;28;20574;-60
2021/04/12 10:06:09;;;;;;;1.63;1.00;;;23.90;42.80;;;;;;6271603;28;20285;-60
2021/04/12 10:09:44;;;;;;;2.47;0.97;;;24.10;42.70;;;;;;6258365;28;20312;-60
2021/04/12 10:13:08;;;;;;;1.93;1.47;;;24.00;43.00;;;;;;6251076;28;20225;-59
2021/04/12 10:16:19;;;;;;;1.13;0.87;;;24.10;43.40;;;;;;6249116;28;20224;-59
2021/04/12 10:19:24;;;;;;;2.90;1.10;;;24.20;43.30;;;;;;6248051;28;20228;-58
2021/04/12 10:22:44;;;;;;;1.80;0.90;;;24.30;43.00;;;;;;6250130;28;20247;-59
2021/04/12 10:25:58;;;;;;;1.37;0.90;;;24.50;42.00;;;;;;6248597;28;20263;-59
2021/04/12 10:29:10;;;;;;;1.23;0.90;;;24.70;41.80;;;;;;6247580;28;20640;-59
2021/04/12 10:32:17;;;;;;;3.20;0.97;;;25.10;41.40;;;;;;6250391;28;20189;-59
2021/04/12 10:35:23;;;;;;;2.57;1.07;;;25.40;40.70;;;;;;6250425;28;20231;-59
2021/04/12 10:38:28;;;;;;;1.20;0.93;;;25.20;40.00;;;;;;6250149;28;20677;-60
2021/04/12 10:41:35;;;;;;;2.00;1.00;;;25.00;40.10;;;;;;6250161;28;20306;-60
2021/04/12 10:44:45;;;;;;;1.90;0.83;;;24.80;41.10;;;;;;6250009;28;20241;-60
2021/04/12 10:47:57;;;;;;;1.63;0.80;;;24.50;41.10;;;;;;6232226;28;20673;-60
2021/04/12 10:51:22;;;;;;;2.70;1.10;;;24.20;40.80;;;;;;6235777;28;20675;-57
2021/04/12 10:54:55;;;;;;;1.00;0.83;;;24.00;41.20;;;;;;6243126;28;20232;-59
2021/04/12 10:58:14;;;;;;;1.50;1.20;;;23.70;41.60;;;;;;6268854;28;20251;-58
2021/04/12 11:01:28;;;;;;;1.97;0.70;;;23.40;42.70;;;;;;6249460;28;20316;-57
2021/04/12 11:04:50;;;;;;;2.30;1.03;;;22.70;43.30;;;;;;6249584;28;20232;-58
2021/04/12 11:08:02;;;;;;;1.80;1.07;;;22.50;44.20;;;;;;6240448;28;20232;-57
2021/04/12 11:11:13;;;;;;;1.13;0.70;;;22.00;44.70;;;;;;6248984;28;20262;-57
2021/04/12 11:14:22;;;;;;;1.23;0.80;;;21.80;44.90;;;;;;6243078;28;20250;-56
2021/04/12 11:17:36;;;;;;;2.40;0.80;;;21.70;45.10;;;;;;6273632;28;20239;-57
2021/04/12 11:20:44;;;;;;;1.57;1.10;;;21.60;45.20;;;;;;6249376;28;20243;-57
2021/04/12 11:23:59;;;;;;;1.37;1.17;;;21.60;45.80;;;;;;6248836;28;20314;-56
2021/04/12 11:27:38;;;;;;;0.77;0.70;;;21.20;46.40;;;;;;6257877;28;20220;-56
2021/04/12 11:30:50;;;;;;;1.73;1.00;;;20.70;47.40;;;;;;6264770;28;20239;-56
2021/04/12 11:34:10;;;;;;;0.90;0.80;;;20.40;48.00;;;;;;6273192;28;20254;-57
2021/04/12 11:37:21;;;;;;;1.10;0.90;;;20.00;48.60;;;;;;6273242;28;20224;-56
2021/04/12 11:40:29;;;;;;;1.00;0.90;;;19.70;50.20;;;;;;6273190;28;20273;-57
2021/04/12 11:43:35;;;;;;;1.33;1.23;;;19.40;50.40;;;;;;6268604;28;20244;-57
2021/04/12 11:46:58;;;;;;;1.23;1.13;;;19.50;50.80;;;;;;6248654;28;20236;-59
2021/04/12 11:50:27;;;;;;;2.70;0.93;;;19.60;50.80;;;;;;6248898;28;20215;-58
2021/04/12 11:53:50;;;;;;;4.20;1.10;;;19.60;51.00;;;;;;6247197;28;20322;-58
2021/04/12 11:57:00;;;;;;;1.60;0.80;;;19.60;51.10;;;;;;6240798;28;20228;-58
2021/04/12 12:00:07;;;;;;;2.97;0.93;;;19.60;50.90;;;;;;6249017;28;20251;-60
2021/04/12 12:03:21;;;;;;;1.90;0.70;;;19.70;51.00;;;;;;6249042;28;20238;-59
2021/04/12 12:06:42;;;;;;;1.00;0.60;;;19.60;51.30;;;;;;6249576;28;20372;-58
2021/04/12 12:09:49;;;;;;;3.43;0.90;;;19.40;51.50;;;;;;6247113;28;20244;-59
2021/04/12 12:12:58;;;;;;;0.70;0.60;;;19.00;52.10;;;;;;6247023;28;20702;-58
2021/04/12 12:16:23;;;;;;;1.00;0.90;;;18.90;53.00;;;;;;6247136;28;20239;-58
2021/04/12 12:19:36;;;;;;;2.60;0.70;;;19.00;54.00;;;;;;6266121;28;20228;-58
2021/04/12 12:22:48;;;;;;;1.53;1.23;;;18.90;53.60;;;;;;6273158;28;20604;-57
2021/04/12 12:25:53;;;;;;;1.20;1.10;;;18.90;54.70;;;;;;6278620;28;20470;-59
2021/04/12 12:29:18;;;;;;;3.03;0.73;;;18.90;55.50;;;;;;6279042;28;20442;-60
2021/04/12 12:32:46;;;;;;;1.47;1.20;;;18.90;56.60;;;;;;6269425;28;20926;-59
2021/04/12 12:35:57;;;;;;;1.50;1.40;;;18.70;57.20;;;;;;6278669;28;20478;-60
2021/04/12 12:39:07;;;;;;;1.70;1.00;;;18.80;58.00;;;;;;6278817;28;20257;-58
2021/04/12 12:42:18;;;;;;;3.00;1.40;;;18.80;57.70;;;;;;6269166;28;20507;-58
2021/04/12 12:45:27;;;;;;;1.53;1.33;;;18.80;58.90;;;;;;6253632;28;20257;-58
2021/04/12 12:48:33;;;;;;;3.30;1.10;;;18.90;59.40;;;;;;6230348;28;20225;-58
2021/04/12 12:51:40;;;;;;;2.37;0.90;;;18.80;60.70;;;;;;6228962;28;20474;-59
2021/04/12 12:54:48;;;;;;;0.97;0.90;;;18.80;61.60;;;;;;6248271;28;20620;-59
2021/04/12 12:57:52;;;;;;;2.60;1.00;;;18.80;63.10;;;;;;6260853;28;20351;-59
2021/04/12 13:00:58;;;;;;;4.87;1.23;;;18.60;64.30;;;;;;6253520;28;20593;-59
2021/04/12 13:04:14;;;;;;;0.87;0.87;;;18.40;66.20;;;;;;6253115;28;20487;-59
2021/04/12 13:07:20;;;;;;;1.03;0.93;;;18.30;67.40;;;;;;6251331;28;20489;-58
2021/04/12 13:10:34;;;;;;;2.90;1.00;;;18.20;70.00;;;;;;6250945;28;20475;-58
2021/04/12 13:13:39;;;;;;;0.90;0.70;;;18.00;73.20;;;;;;6251796;28;20475;-60
2021/04/12 13:16:43;;;;;;;1.20;1.10;;;17.40;80.40;;;;;;6253004;28;20564;-56
2021/04/12 13:19:50;;;;;;;3.10;0.83;;;16.90;89.90;;;;;;6274491;28;20466;-58
2021/04/12 13:23:04;;;;;;;1.80;1.07;;;16.50;92.90;;;;;;6277283;28;21016;-57
2021/04/12 13:26:20;;;;;;;2.63;1.07;;;16.30;95.80;;;;;;6277247;28;20447;-57
2021/04/12 13:29:25;;;;;;;1.40;1.30;;;16.20;97.70;;;;;;6277623;28;20476;-61
2021/04/12 13:32:30;;;;;;;1.43;1.33;;;16.20;97.70;;;;;;6277446;28;20481;-61
2021/04/12 13:35:37;;;;;;;2.43;1.13;;;16.20;98.60;;;;;;6272151;28;20462;-60
2021/04/12 13:38:41;;;;;;;2.30;1.30;;;16.00;99.40;;;;;;6277581;28;20474;-60
2021/04/12 13:41:47;;;;;;;1.40;1.03;;;15.90;99.90;;;;;;6275950;28;20479;-61
2021/04/12 13:44:54;;;;;;;1.50;1.40;;;15.80;99.90;;;;;;6275935;28;21000;-60
2021/04/12 13:48:03;;;;;;;1.53;1.43;;;15.80;99.90;;;;;;6237653;28;20482;-61
2021/04/12 13:51:09;;;;;;;1.57;1.30;;;15.70;99.90;;;;;;6236161;28;20525;-60
2021/04/12 13:54:20;;;;;;;1.67;1.23;;;15.60;99.90;;;;;;6256460;28;20553;-60
2021/04/12 13:57:35;;;;;;;1.50;1.40;;;15.40;99.90;;;;;;6273553;28;20466;-60
2021/04/12 14:00:44;;;;;;;1.50;1.40;;;15.30;99.90;;;;;;6250812;28;20801;-61
2021/04/12 14:03:59;;;;;;;1.83;1.30;;;15.20;99.90;;;;;;6251042;28;20477;-61
2021/04/12 14:07:08;;;;;;;4.30;1.20;;;15.10;99.90;;;;;;6250387;28;20482;-61
2021/04/12 14:10:15;;;;;;;1.67;1.33;;;15.00;99.90;;;;;;6250395;28;20856;-61
2021/04/12 14:13:22;;;;;;;1.33;1.23;;;14.90;99.90;;;;;;6251389;28;20471;-60
2021/04/12 14:16:28;;;;;;;2.93;1.50;;;14.80;99.90;;;;;;6251743;28;20482;-62
2021/04/12 14:19:38;;;;;;;2.43;1.30;;;14.70;99.90;;;;;;6271193;28;20470;-59
2021/04/12 14:22:50;;;;;;;1.50;1.40;;;14.70;99.90;;;;;;6255963;28;20475;-62
2021/04/12 14:25:58;;;;;;;1.77;1.67;;;14.60;99.90;;;;;;6247939;28;20486;-62
2021/04/12 14:29:08;;;;;;;1.70;1.60;;;14.60;99.90;;;;;;6247361;28;20538;-62
2021/04/12 14:32:15;;;;;;;3.30;1.60;;;14.70;99.90;;;;;;6246284;28;20771;-62
2021/04/12 14:35:25;;;;;;;1.40;1.30;;;14.60;99.90;;;;;;6247706;28;20467;-63
2021/04/12 14:38:27;;;;;;;2.00;1.70;;;14.50;99.90;;;;;;6243865;28;20463;-62
2021/04/12 14:41:33;;;;;;;3.13;1.53;;;14.30;99.90;;;;;;6243022;28;20470;-62
2021/04/12 14:44:40;;;;;;;3.20;1.73;;;14.20;99.90;;;;;;6248436;28;20537;-62
2021/04/12 14:47:49;;;;;;;2.00;1.80;;;14.10;99.90;;;;;;6245398;28;20471;-62
2021/04/12 14:50:54;;;;;;;2.70;1.70;;;14.10;99.90;;;;;;6248172;28;20463;-61
2021/04/12 14:54:01;;;;;;;2.30;1.80;;;14.10;99.90;;;;;;6251476;28;20474;-61
2021/04/12 14:57:09;;;;;;;1.80;1.43;;;14.10;99.90;;;;;;6265506;28;20474;-61
2021/04/12 15:00:17;;;;;;;1.77;1.67;;;14.10;99.90;;;;;;6248977;28;20503;-62
2021/04/12 15:03:23;;;;;;;2.40;1.40;;;14.20;99.90;;;;;;6248429;28;20823;-61
2021/04/12 15:06:31;;;;;;;3.07;1.47;;;14.20;99.90;;;;;;6248706;28;20494;-61
2021/04/12 15:09:41;;;;;;;2.60;1.67;;;14.20;99.90;;;;;;6248314;28;20486;-60
2021/04/12 15:12:50;;;;;;;3.43;1.40;;;14.30;99.90;;;;;;6248128;28;20479;-61
2021/04/12 15:15:57;;;;;;;1.80;1.70;;;14.40;99.90;;;;;;6248411;28;20463;-61
2021/04/12 15:19:05;;;;;;;1.97;1.80;;;14.30;99.90;;;;;;6247141;28;20629;-62
2021/04/12 15:22:12;;;;;;;2.37;1.97;;;14.20;99.90;;;;;;6248161;28;20483;-61
2021/04/12 15:25:19;;;;;;;2.10;1.90;;;14.20;99.90;;;;;;6247933;28;20486;-61
2021/04/12 15:28:30;;;;;;;2.53;1.97;;;14.30;99.90;;;;;;6247882;28;20498;-61
2021/04/12 15:31:35;;;;;;;2.37;1.80;;;14.30;99.90;;;;;;6248006;28;20967;-58
2021/04/12 15:34:43;;;;;;;1.80;1.70;;;14.40;99.90;;;;;;6247662;28;20494;-61
2021/04/12 15:37:55;;;;;;;3.40;2.20;;;14.40;99.90;;;;;;6247765;28;20482;-61
2021/04/12 15:41:06;;;;;;;2.00;1.90;;;14.40;99.90;;;;;;6247732;28;20512;-59
2021/04/12 15:44:15;;;;;;;3.03;1.80;;;14.40;99.90;;;;;;6238458;28;20482;-61
2021/04/12 15:47:25;;;;;;;2.23;1.93;;;14.50;99.90;;;;;;6234461;28;20482;-61
2021/04/12 15:50:32;;;;;;;2.20;1.63;;;14.40;99.90;;;;;;6223594;28;20491;-61
2021/04/12 15:53:36;;;;;;;1.20;0.90;;;14.00;99.90;;;;;;6223958;28;20463;-61
2021/04/12 15:56:40;;;;;;;1.87;1.13;;;13.20;99.90;;;;;;6272355;28;20474;-59
2021/04/12 15:59:50;;;;;;;0.97;0.90;;;12.70;99.90;;;;;;6272462;28;20549;-59
2021/04/12 16:03:00;;;;;;;0.90;0.80;;;12.40;99.90;;;;;;6272348;28;20471;-59
2021/04/12 16:06:08;;;;;;;1.03;1.03;;;12.30;99.90;;;;;;6272386;28;20474;-59
2021/04/12 16:09:26;;;;;;;1.10;1.00;;;12.10;99.90;;;;;;6253311;28;20476;-61
2021/04/12 16:12:32;;;;;;;1.20;0.90;;;12.00;99.90;;;;;;6247093;28;20479;-59
2021/04/12 16:15:38;;;;;;;1.10;0.60;;;11.90;99.90;;;;;;6247606;28;20467;-59
2021/04/12 16:18:57;;;;;;;1.50;0.63;;;11.70;99.90;;;;;;6247363;28;20578;-61
2021/04/12 16:22:13;;;;;;;0.57;0.57;;;11.50;99.90;;;;;;6247464;28;20538;-58
2021/04/12 16:25:20;;;;;;;0.90;0.70;;;11.50;99.90;;;;;;6247042;28;20487;-60
2021/04/12 16:28:30;;;;;;;1.23;0.53;;;11.40;99.90;;;;;;6247272;28;20516;-59
2021/04/12 16:31:36;;;;;;;0.87;0.70;;;11.10;99.90;;;;;;6247015;28;20500;-58
2021/04/12 16:34:38;;;;;;;2.50;0.80;;;11.10;99.90;;;;;;6247329;28;20505;-59
2021/04/12 16:37:44;;;;;;;0.90;0.60;;;10.90;99.90;;;;;;6249220;28;20475;-59
2021/04/12 16:41:03;;;;;;;0.90;0.60;;;10.80;99.90;;;;;;6248908;28;20617;-58
2021/04/12 16:44:10;;;;;;;0.60;0.53;;;10.60;99.90;;;;;;6249265;28;20459;-59
2021/04/12 16:47:17;;;;;;;1.10;0.60;;;10.40;99.90;;;;;;6239653;28;20454;-60
2021/04/12 16:50:32;;;;;;;1.43;0.90;;;10.20;99.90;;;;;;6248188;28;20455;-57
2021/04/12 16:53:39;;;;;;;0.50;0.50;;;10.10;99.90;;;;;;6248392;28;20485;-57
2021/04/12 16:56:48;;;;;;;2.10;0.50;;;9.90;99.90;;;;;;6224674;28;20971;-59
2021/04/12 17:00:15;;;;;;;1.47;0.60;;;9.70;99.90;;;;;;6224792;28;20467;-61
2021/04/12 17:03:33;;;;;;;1.10;0.67;;;9.50;99.90;;;;;;6224586;28;20476;-61
2021/04/12 17:06:42;;;;;;;0.70;0.70;;;9.40;99.90;;;;;;6224759;28;20560;-60
2021/04/12 17:09:57;;;;;;;1.57;0.70;;;9.30;99.90;;;;;;6248411;28;20494;-57
2021/04/12 17:13:05;;;;;;;0.70;0.60;;;9.20;99.90;;;;;;6253385;28;20467;-59
2021/04/12 17:16:15;;;;;;;3.73;1.33;;;9.00;99.90;;;;;;6253435;28;20943;-59
2021/04/12 17:19:23;;;;;;;0.80;0.73;;;8.90;99.90;;;;;;6253438;28;20486;-58
2021/04/12 17:22:31;;;;;;;0.40;0.40;;;8.70;99.90;;;;;;6252956;28;20493;-60
2021/04/12 17:25:42;;;;;;;0.80;0.80;;;8.50;99.90;;;;;;6252491;28;20571;-58
2021/04/12 17:28:48;;;;;;;2.60;0.70;;;8.50;99.90;;;;;;6252929;28;20486;-60